Time;durP1;ratioP1;P1;durP2;ratioP2;P2;SDS_P1;SDS_P2;PMS_P1;PMS_P2;Temp;Humidity;BMP_temperature;BMP_pressure;BME280_temperature;BME280_humidity;BME280_pressure;Samples;Min_cycle;Max_cycle;Signal;HPM_P1;HPM_P2
2022/08/26 00:01:25;;;;;;;3.95;0.90;;;;;;;21.63;74.96;101683.56;4985862;28;20108;-80
2022/08/26 00:03:51;;;;;;;2.88;0.85;;;;;;;21.60;75.22;101686.47;5036866;28;20061;-80
2022/08/26 00:06:17;;;;;;;3.00;0.82;;;;;;;21.59;75.21;101684.75;5019134;28;20281;-80
2022/08/26 00:08:42;;;;;;;2.78;0.95;;;;;;;21.57;75.32;101686.66;5036279;28;20037;-80
2022/08/26 00:11:08;;;;;;;5.15;1.27;;;;;;;21.57;75.33;101690.19;5019059;28;20301;-80
2022/08/26 00:13:35;;;;;;;5.35;0.70;;;;;;;21.55;75.38;101686.78;5035813;28;20112;-80
2022/08/26 00:16:02;;;;;;;1.92;0.70;;;;;;;21.52;75.26;101687.03;5037015;28;20040;-80
2022/08/26 00:18:27;;;;;;;3.88;1.05;;;;;;;21.54;75.41;101684.22;5035856;28;20033;-80
2022/08/26 00:20:53;;;;;;;2.25;0.57;;;;;;;21.52;75.20;101692.34;5018393;28;20033;-80
2022/08/26 00:23:19;;;;;;;2.72;1.20;;;;;;;21.50;75.22;101688.94;5002341;28;20041;-80
2022/08/26 00:25:45;;;;;;;4.18;0.80;;;;;;;21.51;75.57;101689.81;5035162;28;20041;-80
2022/08/26 00:28:11;;;;;;;2.05;0.60;;;;;;;21.49;75.58;101689.91;5002515;28;20048;-80
2022/08/26 00:30:37;;;;;;;1.02;0.50;;;;;;;21.49;75.47;101691.72;5018061;28;20244;-80
2022/08/26 00:33:04;;;;;;;2.65;0.60;;;;;;;21.47;75.53;101683.84;5018417;28;20032;-80
2022/08/26 00:35:29;;;;;;;2.25;0.85;;;;;;;21.46;75.52;101682.97;5036124;28;20248;-80
2022/08/26 00:37:56;;;;;;;2.25;0.93;;;;;;;21.47;75.63;101681.19;5036036;28;20116;-80
2022/08/26 00:40:26;;;;;;;1.35;0.70;;;;;;;21.46;75.28;101688.31;5017875;28;20044;-80
2022/08/26 00:42:52;;;;;;;3.50;1.13;;;;;;;21.43;75.65;101685.84;5035982;28;20072;-80
2022/08/26 00:45:18;;;;;;;5.50;0.85;;;;;;;21.44;75.60;101697.34;5018465;28;20044;-80
2022/08/26 00:47:48;;;;;;;1.67;0.68;;;;;;;21.43;75.75;101696.50;5017726;28;20228;-80
2022/08/26 00:50:21;;;;;;;1.67;0.65;;;;;;;21.42;75.70;101683.28;5018355;28;20052;-80
2022/08/26 00:52:47;;;;;;;1.35;0.50;;;;;;;21.42;75.53;101691.28;5017404;28;20343;-80
2022/08/26 00:55:42;;;;;;;2.90;0.70;;;;;;;21.41;75.84;101689.56;5036162;28;20045;-80
2022/08/26 00:58:07;;;;;;;1.73;0.70;;;;;;;21.41;75.77;101692.25;5022365;28;20116;-80
2022/08/26 01:00:34;;;;;;;1.52;0.60;;;;;;;21.40;75.57;101693.22;5035170;28;20087;-80
2022/08/26 01:03:02;;;;;;;5.00;0.82;;;;;;;21.40;75.95;101690.56;5018066;28;20037;-80
2022/08/26 01:05:28;;;;;;;3.27;1.00;;;;;;;21.38;75.93;101685.34;5035141;28;20029;-80
2022/08/26 01:07:53;;;;;;;2.33;0.90;;;;;;;21.38;75.73;101685.34;5035608;28;20041;-80
2022/08/26 01:10:23;;;;;;;3.50;0.80;;;;;;;21.37;75.62;101686.28;5017650;28;20044;-80
2022/08/26 01:12:53;;;;;;;2.80;0.88;;;;;;;21.37;75.81;101685.44;5035410;28;20029;-80
2022/08/26 01:15:23;;;;;;;1.38;0.50;;;;;;;21.37;75.69;101680.09;5035596;28;20087;-80
2022/08/26 01:17:50;;;;;;;1.48;0.60;;;;;;;21.34;75.92;101681.19;5034827;28;20079;-80
2022/08/26 01:20:40;;;;;;;2.25;0.70;;;;;;;21.33;75.71;101689.28;5016960;28;20036;-80
2022/08/26 01:23:08;;;;;;;2.85;0.60;;;;;;;21.32;76.07;101680.47;5032987;28;20072;-80
2022/08/26 01:25:38;;;;;;;2.72;1.10;;;;;;;21.33;75.89;101682.16;5009664;28;20025;-80
2022/08/26 01:28:08;;;;;;;3.28;0.68;;;;;;;21.33;76.01;101681.31;5027458;28;20040;-80
2022/08/26 01:30:37;;;;;;;1.08;0.70;;;;;;;21.31;75.66;101680.56;5034187;28;20055;-80
2022/08/26 01:33:05;;;;;;;1.85;0.90;;;;;;;21.29;75.84;101688.66;5028434;28;20029;-80
2022/08/26 01:35:31;;;;;;;3.55;1.20;;;;;;;21.26;76.11;101681.72;5029110;28;20025;-80
2022/08/26 01:37:59;;;;;;;4.55;1.30;;;;;;;21.25;75.78;101692.53;4995137;28;20084;-80
2022/08/26 01:40:29;;;;;;;4.97;0.80;;;;;;;21.24;75.62;101691.66;5025907;28;20331;-80
2022/08/26 01:42:55;;;;;;;2.63;0.90;;;;;;;21.23;75.76;101695.28;5024188;28;20229;-80
2022/08/26 01:45:25;;;;;;;2.95;0.73;;;;;;;21.22;75.63;101695.41;5006244;28;20109;-80
2022/08/26 01:47:52;;;;;;;0.68;0.50;;;;;;;21.22;75.71;101698.91;5024493;28;20030;-80
2022/08/26 01:50:23;;;;;;;4.95;0.90;;;;;;;21.21;75.88;101693.69;5024091;28;20026;-80
2022/08/26 01:52:50;;;;;;;1.38;0.65;;;;;;;21.20;75.61;101700.00;5023156;28;20053;-80
2022/08/26 01:55:17;;;;;;;3.17;0.75;;;;;;;21.20;75.56;101700.84;5025598;28;20100;-80
2022/08/26 01:57:45;;;;;;;3.00;0.75;;;;;;;21.20;75.50;101706.16;5025022;28;20091;-80
2022/08/26 02:00:13;;;;;;;1.85;0.60;;;;;;;21.19;75.58;101698.28;5041039;28;20092;-79
2022/08/26 02:02:42;;;;;;;3.25;0.80;;;;;;;21.17;75.54;101697.53;5006742;28;20102;-80
2022/08/26 02:05:10;;;;;;;2.65;0.90;;;;;;;21.15;75.44;101700.31;5004839;28;20222;-80
2022/08/26 02:07:38;;;;;;;2.70;0.60;;;;;;;21.14;75.63;101695.97;5024408;28;20029;-80
2022/08/26 02:10:05;;;;;;;2.30;0.67;;;;;;;21.13;75.49;101691.59;4993524;28;20325;-79
2022/08/26 02:12:31;;;;;;;4.15;1.00;;;;;;;21.13;75.61;101694.25;4994875;28;20284;-79
2022/08/26 02:15:00;;;;;;;1.67;0.75;;;;;;;21.13;75.29;101693.41;5021886;28;20267;-80
2022/08/26 02:17:32;;;;;;;1.35;0.52;;;;;;;21.11;75.39;101692.66;5029734;28;20412;-80
2022/08/26 02:19:58;;;;;;;1.13;0.57;;;;;;;21.10;75.31;101699.78;5023834;28;20115;-80
2022/08/26 02:22:24;;;;;;;1.10;0.80;;;;;;;21.08;75.10;101697.25;5027877;28;20053;-80
2022/08/26 02:24:51;;;;;;;1.85;0.75;;;;;;;21.09;74.99;101703.44;4995281;28;20344;-80
2022/08/26 02:27:20;;;;;;;2.95;0.77;;;;;;;21.08;74.83;101699.03;5016846;28;20105;-80
2022/08/26 02:29:57;;;;;;;2.97;0.60;;;;;;;21.07;74.90;101708.00;5034040;28;20051;-79
2022/08/26 02:32:23;;;;;;;1.52;0.70;;;;;;;21.06;74.99;101703.63;5035808;28;20037;-80
2022/08/26 02:34:49;;;;;;;1.55;0.77;;;;;;;21.06;75.03;101706.28;5035425;28;20375;-79
2022/08/26 02:37:14;;;;;;;4.22;0.88;;;;;;;21.05;75.07;101705.47;5034317;28;20093;-79
2022/08/26 02:39:41;;;;;;;3.33;0.80;;;;;;;21.03;74.93;101701.22;5033851;28;20072;-79
2022/08/26 02:42:07;;;;;;;1.35;0.60;;;;;;;21.03;74.88;101703.88;5034317;28;20356;-79
2022/08/26 02:44:33;;;;;;;4.47;0.63;;;;;;;21.04;74.91;101713.53;4999709;28;20104;-80
2022/08/26 02:46:59;;;;;;;1.92;0.70;;;;;;;21.01;74.70;101701.31;5034649;28;20093;-80
2022/08/26 02:49:25;;;;;;;1.42;0.70;;;;;;;21.01;74.80;101709.31;5020221;28;20344;-80
2022/08/26 02:51:51;;;;;;;2.10;0.80;;;;;;;20.99;74.60;101710.34;5020120;28;20125;-80
2022/08/26 02:54:18;;;;;;;2.00;0.80;;;;;;;20.99;74.77;101707.69;5038279;28;20118;-80
2022/08/26 02:56:44;;;;;;;2.70;0.63;;;;;;;20.98;74.76;101703.34;5019516;28;20025;-80
2022/08/26 02:59:11;;;;;;;1.08;0.65;;;;;;;20.98;74.92;101706.00;5020438;28;20068;-80
2022/08/26 03:01:37;;;;;;;2.47;0.60;;;;;;;20.96;74.60;101694.63;5037229;28;20092;-79
2022/08/26 03:04:05;;;;;;;1.40;0.50;;;;;;;20.95;74.92;101696.41;5020274;28;20045;-80
2022/08/26 03:06:30;;;;;;;1.52;0.90;;;;;;;20.95;74.87;101698.22;5036949;28;20049;-80
2022/08/26 03:08:56;;;;;;;1.10;0.55;;;;;;;20.93;74.76;101692.16;5037569;28;20389;-80
2022/08/26 03:11:22;;;;;;;1.00;0.50;;;;;;;20.93;74.69;101692.16;5020144;28;20041;-80
2022/08/26 03:13:48;;;;;;;1.85;1.13;;;;;;;20.91;74.83;101689.59;5037137;28;20045;-80
2022/08/26 03:16:13;;;;;;;2.72;0.65;;;;;;;20.90;74.86;101677.25;5037760;28;20384;-80
2022/08/26 03:18:39;;;;;;;1.15;0.60;;;;;;;20.89;74.63;101681.72;5019586;28;20117;-79
2022/08/26 03:21:16;;;;;;;1.08;0.55;;;;;;;20.88;74.74;101677.38;5038033;28;20044;-79
2022/08/26 03:23:43;;;;;;;1.70;0.70;;;;;;;20.88;74.70;101677.38;5018967;28;20124;-80
2022/08/26 03:26:11;;;;;;;2.03;0.77;;;;;;;20.87;75.02;101677.47;5020174;28;20323;-80
2022/08/26 03:30:38;;;;;;;1.30;0.70;;;;;;;20.85;74.83;101674.09;5036710;28;20079;-80
2022/08/26 03:31:26;;;;;;;1.80;0.50;;;;;;;20.84;74.86;101680.34;5036648;28;20056;-79
2022/08/26 03:33:51;;;;;;;1.75;0.70;;;;;;;20.83;75.09;101675.97;5019703;28;20029;-79
2022/08/26 03:36:17;;;;;;;1.30;0.40;;;;;;;20.82;74.95;101679.63;5037355;28;20049;-80
2022/08/26 03:38:42;;;;;;;3.55;0.90;;;;;;;20.81;75.02;101680.56;5018761;28;20260;-80
2022/08/26 03:41:09;;;;;;;1.85;0.63;;;;;;;20.80;75.31;101676.22;5037328;28;20049;-79
2022/08/26 03:43:35;;;;;;;0.80;0.50;;;;;;;20.80;75.10;101681.53;5018543;28;20025;-79
2022/08/26 03:46:05;;;;;;;1.40;0.57;;;;;;;20.80;75.03;101678.88;5037213;28;20037;-79
2022/08/26 03:48:30;;;;;;;1.13;0.52;;;;;;;20.79;75.29;101683.34;5036166;28;20424;-79
2022/08/26 03:50:55;;;;;;;2.15;0.52;;;;;;;20.78;75.25;101684.31;5036765;28;20038;-79
2022/08/26 03:53:22;;;;;;;2.38;0.65;;;;;;;20.77;75.46;101673.75;5019441;28;20041;-79
2022/08/26 03:55:48;;;;;;;1.10;0.55;;;;;;;20.76;75.62;101675.56;5036729;28;20041;-80
2022/08/26 03:58:14;;;;;;;2.10;0.60;;;;;;;20.75;75.57;101671.19;5036409;28;20061;-79
2022/08/26 04:00:40;;;;;;;1.08;0.50;;;;;;;20.75;75.34;101670.34;5035533;28;20355;-80
2022/08/26 04:03:06;;;;;;;3.08;0.88;;;;;;;20.75;75.30;101665.03;5036812;28;20045;-80
2022/08/26 04:05:32;;;;;;;2.08;0.65;;;;;;;20.75;75.30;101673.03;5002445;28;20037;-79
2022/08/26 04:07:57;;;;;;;1.42;0.68;;;;;;;20.75;75.61;101660.56;5036637;28;20048;-80
2022/08/26 04:10:23;;;;;;;1.10;0.50;;;;;;;20.74;75.37;101671.31;5018324;28;20044;-79
2022/08/26 04:12:49;;;;;;;0.98;0.50;;;;;;;20.74;75.58;101674.84;5036658;28;20429;-79
2022/08/26 04:15:16;;;;;;;1.33;0.57;;;;;;;20.75;75.32;101675.69;5019297;28;20037;-79
2022/08/26 04:17:42;;;;;;;1.13;0.40;;;;;;;20.73;75.50;101670.47;5017970;28;20045;-80
2022/08/26 04:20:08;;;;;;;1.70;0.60;;;;;;;20.72;75.34;101668.78;5036490;28;20213;-80
2022/08/26 04:22:33;;;;;;;1.70;0.70;;;;;;;20.74;75.55;101671.31;5035706;28;20104;-80
2022/08/26 04:24:59;;;;;;;0.98;0.43;;;;;;;20.71;75.20;101672.38;5036941;28;20045;-79
2022/08/26 04:27:24;;;;;;;0.85;0.32;;;;;;;20.71;75.32;101677.72;5017887;28;20079;-80
2022/08/26 04:29:50;;;;;;;2.08;0.60;;;;;;;20.71;75.10;101675.03;5018646;28;20029;-79
2022/08/26 04:32:16;;;;;;;1.15;0.45;;;;;;;20.70;75.23;101676.88;5036245;28;20351;-80
2022/08/26 04:34:41;;;;;;;3.50;0.63;;;;;;;20.70;75.14;101670.66;5017578;28;20033;-80
2022/08/26 04:37:08;;;;;;;4.35;0.77;;;;;;;20.69;75.21;101677.81;5018721;28;20037;-80
2022/08/26 04:39:33;;;;;;;1.85;0.47;;;;;;;20.68;75.52;101677.91;5035422;28;20467;-79
2022/08/26 04:41:59;;;;;;;1.00;0.50;;;;;;;20.67;75.36;101681.56;5036127;28;20064;-79
2022/08/26 04:44:27;;;;;;;1.80;0.55;;;;;;;20.67;75.60;101678.88;5035779;28;20041;-79
2022/08/26 04:46:53;;;;;;;1.70;0.63;;;;;;;20.67;75.65;101684.22;5017959;28;20244;-79
2022/08/26 04:49:19;;;;;;;6.35;0.80;;;;;;;20.66;75.48;101683.34;5018561;28;20369;-80
2022/08/26 04:51:45;;;;;;;2.75;0.65;;;;;;;20.65;75.57;101683.47;5000980;28;20044;-80
2022/08/26 04:54:12;;;;;;;2.22;0.88;;;;;;;20.65;75.65;101683.47;5035534;28;20076;-79
2022/08/26 04:56:41;;;;;;;2.92;0.70;;;;;;;20.66;76.11;101685.16;5016819;28;20069;-80
2022/08/26 04:59:10;;;;;;;4.07;0.90;;;;;;;20.63;76.24;101680.91;5035425;28;20312;-80
2022/08/26 05:01:37;;;;;;;2.40;0.88;;;;;;;20.63;76.37;101688.03;5035538;28;20049;-80
2022/08/26 05:04:03;;;;;;;2.00;0.65;;;;;;;20.63;76.14;101688.03;5035731;28;20036;-80
2022/08/26 05:06:29;;;;;;;2.20;0.82;;;;;;;20.62;76.21;101692.50;5021274;28;20284;-80
2022/08/26 05:08:55;;;;;;;2.33;0.90;;;;;;;20.61;76.65;101689.94;5030549;28;20033;-80
2022/08/26 05:11:20;;;;;;;2.55;0.85;;;;;;;20.61;76.19;101681.97;5023984;28;20113;-80
2022/08/26 05:13:46;;;;;;;2.15;0.82;;;;;;;20.60;76.48;101689.06;5012843;28;20337;-80
2022/08/26 05:16:14;;;;;;;2.45;0.70;;;;;;;20.59;76.47;101691.84;5008417;28;20044;-80
2022/08/26 05:18:42;;;;;;;2.97;1.40;;;;;;;20.57;76.75;101694.59;5023209;28;20044;-80
2022/08/26 05:21:14;;;;;;;5.20;0.68;;;;;;;20.55;76.82;101696.50;5000399;28;20063;-80
2022/08/26 05:23:39;;;;;;;2.83;0.85;;;;;;;20.55;76.75;101703.66;5046985;28;20021;-80
2022/08/26 05:26:07;;;;;;;1.95;0.60;;;;;;;20.53;76.61;101704.59;5016008;28;20049;-80
2022/08/26 05:28:32;;;;;;;1.55;0.70;;;;;;;20.55;76.34;101701.00;5015361;28;20025;-80
2022/08/26 05:30:58;;;;;;;2.70;0.65;;;;;;;20.55;76.54;101698.34;5016130;28;20040;-80
2022/08/26 05:33:23;;;;;;;1.15;0.52;;;;;;;20.55;76.39;101699.19;5015759;28;20374;-79
2022/08/26 05:35:49;;;;;;;2.58;0.80;;;;;;;20.54;76.29;101700.16;5032842;28;20351;-80
2022/08/26 05:38:17;;;;;;;1.63;0.90;;;;;;;20.53;76.11;101691.28;5033424;28;20381;-80
2022/08/26 05:40:48;;;;;;;6.18;1.05;;;;;;;20.50;75.86;101701.28;5033266;28;20390;-80
2022/08/26 05:43:15;;;;;;;3.05;0.85;;;;;;;20.48;76.19;101703.22;5031262;28;20034;-80
2022/08/26 05:45:43;;;;;;;1.63;0.60;;;;;;;20.47;75.93;101706.84;5022830;28;20345;-80
2022/08/26 05:48:09;;;;;;;;;;;;;;;20.45;76.17;101722.06;5028920;28;20055;-80
2022/08/26 05:50:47;;;;;;;4.22;0.45;;;;;;;20.46;76.19;101711.28;5029253;28;20223;-80
2022/08/26 05:53:14;;;;;;;0.80;0.60;;;;;;;20.45;76.07;101711.44;5014484;28;20025;-80
2022/08/26 05:55:48;;;;;;;1.70;0.40;;;;;;;20.46;76.04;101715.78;5033159;28;20385;-80
2022/08/26 05:58:14;;;;;;;1.80;0.65;;;;;;;20.44;75.86;101720.34;5010232;28;20431;-80
2022/08/26 06:00:40;;;;;;;2.17;0.63;;;;;;;20.44;75.85;101725.69;4992778;28;20029;-80
2022/08/26 06:03:07;;;;;;;2.78;0.57;;;;;;;20.43;75.82;101719.50;5028565;28;20059;-80
2022/08/26 06:05:40;;;;;;;2.20;0.45;;;;;;;20.42;75.85;101722.28;5013316;28;20092;-80
2022/08/26 06:08:15;;;;;;;3.72;0.80;;;;;;;20.43;76.19;101727.50;5024923;28;20045;-80
2022/08/26 06:10:48;;;;;;;1.75;0.60;;;;;;;20.41;75.94;101729.41;5012230;28;20025;-79
2022/08/26 06:13:17;;;;;;;2.00;0.75;;;;;;;20.40;76.05;101733.00;5006871;28;20509;-80
2022/08/26 06:15:48;;;;;;;2.08;0.73;;;;;;;20.40;76.27;101733.00;5027744;28;20100;-80
2022/08/26 06:18:17;;;;;;;1.23;0.50;;;;;;;20.39;76.00;101736.66;5029473;28;20051;-79
2022/08/26 06:20:45;;;;;;;3.97;0.63;;;;;;;20.39;75.92;101744.63;5025592;28;20059;-80
2022/08/26 06:25:59;;;;;;;1.30;0.60;;;;;;;20.39;76.07;101747.28;5025523;28;20279;-79
2022/08/26 06:28:26;;;;;;;0.65;0.47;;;;;;;20.38;75.93;101745.56;5011345;28;20120;-79
2022/08/26 06:30:53;;;;;;;1.48;0.45;;;;;;;20.38;75.85;101748.22;5011942;28;20060;-79
2022/08/26 06:33:20;;;;;;;1.55;0.40;;;;;;;20.38;75.70;101752.72;5010060;28;20052;-80
2022/08/26 06:35:46;;;;;;;1.35;0.43;;;;;;;20.33;75.76;101745.88;5028698;28;20109;-80
2022/08/26 06:38:12;;;;;;;2.47;0.50;;;;;;;20.32;75.85;101756.63;5012279;28;20037;-79
2022/08/26 06:40:44;;;;;;;2.65;0.88;;;;;;;20.33;75.80;101753.00;5012515;28;20045;-79
2022/08/26 06:43:10;;;;;;;1.55;0.47;;;;;;;20.31;75.66;101755.75;5027927;28;20065;-79
2022/08/26 06:45:36;;;;;;;2.25;0.65;;;;;;;20.30;75.77;101762.06;5022724;28;20045;-79
2022/08/26 06:48:01;;;;;;;0.90;0.30;;;;;;;20.28;75.92;101763.97;5029586;28;20295;-80
2022/08/26 06:50:27;;;;;;;0.80;0.40;;;;;;;20.29;75.92;101764.81;5032406;28;20049;-79
2022/08/26 06:52:53;;;;;;;2.58;0.55;;;;;;;20.26;76.02;101762.34;5019003;28;20132;-79
2022/08/26 06:55:18;;;;;;;1.92;0.75;;;;;;;20.28;75.87;101765.75;5001833;28;20037;-79
2022/08/26 06:57:44;;;;;;;3.35;0.70;;;;;;;20.28;75.63;101771.06;5035646;28;20374;-79
2022/08/26 07:00:11;;;;;;;2.70;0.55;;;;;;;20.28;75.87;101760.44;5017922;28;20060;-80
2022/08/26 07:02:37;;;;;;;2.30;0.50;;;;;;;20.24;75.67;101766.94;5017981;28;20104;-79
2022/08/26 07:05:04;;;;;;;1.58;0.55;;;;;;;20.24;75.67;101769.59;5001520;28;20095;-80
2022/08/26 07:07:29;;;;;;;2.05;0.75;;;;;;;20.24;75.93;101770.44;5031215;28;20336;-79
2022/08/26 07:09:55;;;;;;;2.40;0.55;;;;;;;20.23;75.99;101774.06;5001097;28;20045;-79
2022/08/26 07:12:20;;;;;;;1.98;0.60;;;;;;;20.25;75.91;101781.94;5017564;28;20355;-80
2022/08/26 07:14:47;;;;;;;5.22;0.60;;;;;;;20.24;75.79;101777.56;5011366;28;20107;-79
2022/08/26 07:17:13;;;;;;;1.17;0.52;;;;;;;20.23;75.59;101775.84;5035840;28;20030;-80
2022/08/26 07:19:38;;;;;;;2.60;0.60;;;;;;;20.22;75.77;101775.00;5035080;28;20029;-79
2022/08/26 07:22:05;;;;;;;1.58;0.30;;;;;;;20.22;75.70;101775.00;5018136;28;20053;-79
2022/08/26 07:24:36;;;;;;;1.70;0.70;;;;;;;20.23;75.83;101786.47;5019021;28;20040;-79
2022/08/26 07:27:04;;;;;;;0.98;0.43;;;;;;;20.22;75.87;101790.13;5018109;28;20037;-79
2022/08/26 07:29:30;;;;;;;4.47;0.93;;;;;;;20.22;75.62;101787.47;5017011;28;20025;-79
2022/08/26 07:31:55;;;;;;;1.70;0.50;;;;;;;20.23;75.55;101799.78;5017885;28;20060;-79
2022/08/26 07:34:21;;;;;;;0.90;0.40;;;;;;;20.22;75.73;101795.44;5017432;28;20048;-79
2022/08/26 07:36:49;;;;;;;1.10;0.40;;;;;;;20.22;75.83;101798.94;5016869;28;20039;-79
2022/08/26 07:39:15;;;;;;;3.10;0.70;;;;;;;20.22;75.52;101803.41;5017992;28;20055;-79
2022/08/26 07:41:41;;;;;;;1.90;0.47;;;;;;;20.22;75.77;101806.91;4988080;28;20135;-79
2022/08/26 07:44:07;;;;;;;2.83;0.55;;;;;;;20.23;75.56;101805.97;5034892;28;20065;-79
2022/08/26 07:46:33;;;;;;;3.80;0.82;;;;;;;20.22;75.91;101811.38;5036301;28;20350;-79
2022/08/26 07:48:59;;;;;;;1.50;0.70;;;;;;;20.21;75.96;101810.56;5035081;28;20204;-81
2022/08/26 07:51:26;;;;;;;1.88;0.70;;;;;;;20.22;75.84;101800.75;5016995;28;20346;-82
2022/08/26 07:53:53;;;;;;;2.10;0.47;;;;;;;20.22;75.84;101804.25;5017536;28;20339;-79
2022/08/26 07:56:19;;;;;;;1.88;0.40;;;;;;;20.23;76.00;101805.09;5017510;28;20029;-80
2022/08/26 07:58:45;;;;;;;0.82;0.50;;;;;;;20.24;76.15;101806.81;5016608;28;20061;-80
2022/08/26 08:01:11;;;;;;;1.60;0.80;;;;;;;20.23;76.04;101808.63;5017049;28;20041;-79
2022/08/26 08:03:36;;;;;;;2.00;0.85;;;;;;;20.24;76.05;101815.63;5033372;28;20150;-79
2022/08/26 08:06:02;;;;;;;1.90;0.68;;;;;;;20.24;76.21;101812.97;5028283;28;20053;-79
2022/08/26 08:08:27;;;;;;;1.35;0.45;;;;;;;20.24;76.08;101825.44;5006873;28;20060;-80
2022/08/26 08:10:54;;;;;;;2.65;0.43;;;;;;;20.23;75.75;101824.59;5030833;28;20108;-79
2022/08/26 08:13:19;;;;;;;1.33;0.60;;;;;;;20.23;75.42;101824.59;5032670;28;20332;-79
2022/08/26 08:15:45;;;;;;;0.88;0.50;;;;;;;20.23;75.61;101821.94;5033706;28;20029;-82
2022/08/26 08:18:10;;;;;;;1.38;0.57;;;;;;;20.22;75.30;101814.06;5016536;28;20057;-81
2022/08/26 08:20:36;;;;;;;1.98;0.65;;;;;;;20.23;75.32;101821.94;5033896;28;20229;-79
2022/08/26 08:23:03;;;;;;;1.27;0.40;;;;;;;20.24;75.31;101822.78;5013357;28;20041;-80
2022/08/26 08:25:29;;;;;;;2.22;0.68;;;;;;;20.24;75.39;101817.47;5016259;28;20049;-79
2022/08/26 08:27:54;;;;;;;1.55;0.75;;;;;;;20.26;75.16;101821.72;5015904;28;20064;-80
2022/08/26 08:30:20;;;;;;;4.03;0.95;;;;;;;20.27;74.88;101827.91;5000336;28;20217;-79
2022/08/26 08:32:46;;;;;;;3.13;0.93;;;;;;;20.27;75.21;101817.25;5016012;28;20033;-80
2022/08/26 08:35:15;;;;;;;0.73;0.50;;;;;;;20.26;75.29;101816.38;5000031;28;20076;-79
2022/08/26 08:37:40;;;;;;;2.00;0.55;;;;;;;20.26;75.22;101821.72;5033320;28;20380;-79
2022/08/26 08:40:07;;;;;;;2.67;0.50;;;;;;;20.27;74.88;101809.28;5016005;28;20041;-79
2022/08/26 08:42:46;;;;;;;1.48;0.45;;;;;;;20.26;74.85;101824.38;5032741;28;20067;-79
2022/08/26 08:45:34;;;;;;;1.48;0.40;;;;;;;20.27;74.45;101823.44;5015259;28;20188;-80
2022/08/26 08:48:18;;;;;;;0.90;0.40;;;;;;;20.28;74.25;101816.28;5025065;28;20045;-79
2022/08/26 08:50:50;;;;;;;0.40;0.30;;;;;;;20.28;74.25;101816.28;5021063;28;20335;-79
2022/08/26 08:53:19;;;;;;;1.48;0.47;;;;;;;20.29;74.21;101826.00;5033703;28;20036;-79
2022/08/26 08:55:57;;;;;;;1.10;0.38;;;;;;;20.28;74.20;101818.94;5014884;28;20037;-79
2022/08/26 08:58:37;;;;;;;2.72;0.50;;;;;;;20.26;73.74;101813.72;5015433;28;20060;-79
2022/08/26 09:01:07;;;;;;;0.75;0.28;;;;;;;20.27;73.58;101822.59;5033548;28;20087;-79
2022/08/26 09:03:40;;;;;;;2.65;0.50;;;;;;;20.26;73.57;101820.88;5033042;28;20051;-79
2022/08/26 09:06:15;;;;;;;4.03;0.52;;;;;;;20.27;73.66;101825.25;5028798;28;20093;-79
2022/08/26 09:08:42;;;;;;;1.27;0.30;;;;;;;20.26;73.77;101820.88;4997121;28;20033;-79
2022/08/26 09:11:08;;;;;;;1.63;0.60;;;;;;;20.27;73.35;101819.94;5008478;28;20351;-79
2022/08/26 09:13:35;;;;;;;0.47;0.32;;;;;;;20.26;73.33;101812.88;5014468;28;20056;-79
2022/08/26 09:16:30;;;;;;;2.13;0.40;;;;;;;20.26;73.14;101818.19;5015966;28;20067;-79
2022/08/26 09:19:28;;;;;;;3.92;0.73;;;;;;;20.26;73.22;101821.72;5020714;28;20624;-79
2022/08/26 09:21:57;;;;;;;0.75;0.55;;;;;;;20.24;72.72;101825.44;5014026;28;20710;-79
2022/08/26 09:24:23;;;;;;;2.95;0.30;;;;;;;20.22;72.63;101809.56;4991568;28;20113;-79
2022/08/26 09:26:51;;;;;;;0.85;0.40;;;;;;;20.20;72.87;101821.28;5015219;28;20041;-79
2022/08/26 09:29:32;;;;;;;1.67;0.40;;;;;;;20.21;73.08;101820.31;5015533;28;20525;-79
2022/08/26 09:32:22;;;;;;;1.65;0.60;;;;;;;20.19;72.76;101825.72;5033277;28;20374;-79
2022/08/26 09:34:56;;;;;;;1.63;0.82;;;;;;;20.19;73.92;101832.84;5022077;28;20104;-80
2022/08/26 09:37:36;;;;;;;0.98;0.52;;;;;;;20.19;73.78;101838.19;5033003;28;20041;-79
2022/08/26 09:40:28;;;;;;;2.85;0.70;;;;;;;20.18;74.39;101839.16;5015299;28;20367;-80
2022/08/26 09:43:18;;;;;;;0.85;0.57;;;;;;;20.19;74.46;101838.19;5027805;28;20200;-80
2022/08/26 09:45:46;;;;;;;0.82;0.40;;;;;;;20.18;74.11;101834.69;5032173;28;20473;-79
2022/08/26 09:48:22;;;;;;;;;;;;;;;20.16;74.38;101836.59;5032754;28;20045;-80
2022/08/26 09:50:54;;;;;;;7.00;1.38;;;;;;;20.15;74.77;101842.84;5032595;28;19967;-79
2022/08/26 09:53:24;;;;;;;1.88;0.80;;;;;;;20.14;74.93;101834.03;5020444;28;20128;-80
2022/08/26 09:55:53;;;;;;;6.30;1.05;;;;;;;20.14;74.61;101838.50;5029687;28;20040;-80
2022/08/26 09:58:38;;;;;;;2.72;0.60;;;;;;;20.15;74.62;101837.53;5013443;28;20355;-81
2022/08/26 10:01:13;;;;;;;2.95;0.90;;;;;;;20.15;74.64;101832.22;5014354;28;20206;-80
2022/08/26 10:03:39;;;;;;;1.50;0.70;;;;;;;20.15;74.79;101837.53;5031614;28;20201;-79
2022/08/26 10:06:25;;;;;;;5.38;1.10;;;;;;;20.14;75.01;101831.38;5014914;28;20113;-79
2022/08/26 10:08:54;;;;;;;4.00;1.23;;;;;;;20.14;74.88;101838.50;4998592;28;20103;-81
2022/08/26 10:11:38;;;;;;;2.97;0.77;;;;;;;20.14;75.12;101831.38;5028211;28;20374;-79
2022/08/26 10:14:29;;;;;;;2.47;0.95;;;;;;;20.14;75.15;101830.53;5013418;28;20363;-79
2022/08/26 10:17:03;;;;;;;1.50;0.73;;;;;;;20.14;75.16;101836.69;5014605;28;20251;-80
2022/08/26 10:19:37;;;;;;;2.03;0.70;;;;;;;20.16;74.90;101835.75;5031924;28;20398;-79
2022/08/26 10:22:11;;;;;;;1.60;0.45;;;;;;;20.16;74.58;101835.75;5028555;28;20126;-79
2022/08/26 10:24:42;;;;;;;1.83;0.70;;;;;;;20.17;74.52;101840.09;5031949;28;20038;-79
2022/08/26 10:27:59;;;;;;;4.20;0.95;;;;;;;20.18;74.07;101839.16;5014543;28;20037;-79
2022/08/26 10:30:31;;;;;;;2.33;0.85;;;;;;;20.17;74.35;101845.41;4990460;28;20264;-79
2022/08/26 10:33:06;;;;;;;2.55;0.80;;;;;;;20.16;73.68;101838.41;5032868;28;20094;-79
2022/08/26 10:35:35;;;;;;;2.15;0.70;;;;;;;20.15;73.60;101845.50;5014120;28;20355;-79
2022/08/26 10:38:14;;;;;;;1.75;0.80;;;;;;;20.17;73.75;101842.75;5032029;28;20084;-79
2022/08/26 10:40:53;;;;;;;2.08;0.90;;;;;;;20.17;73.46;101843.59;5028626;28;20049;-79
2022/08/26 10:43:27;;;;;;;2.90;0.88;;;;;;;20.17;73.36;101840.09;5014650;28;20060;-79
2022/08/26 10:45:57;;;;;;;3.15;1.25;;;;;;;20.18;73.20;101841.81;5043193;28;20038;-79
2022/08/26 10:48:42;;;;;;;2.40;0.70;;;;;;;20.18;72.99;101841.81;5031867;28;20037;-80
2022/08/26 10:51:11;;;;;;;5.15;0.98;;;;;;;20.17;72.78;101848.06;5003526;28;20029;-79
2022/08/26 10:53:55;;;;;;;1.95;0.80;;;;;;;20.17;72.92;101845.41;5031812;28;20037;-79
2022/08/26 10:56:27;;;;;;;2.00;0.82;;;;;;;20.17;72.85;101848.06;5024417;28;20033;-79
2022/08/26 10:59:02;;;;;;;2.10;0.93;;;;;;;20.17;73.09;101842.75;5014037;28;20060;-79
2022/08/26 11:01:41;;;;;;;3.95;0.95;;;;;;;20.18;72.85;101841.81;5028388;28;20534;-79
2022/08/26 11:04:19;;;;;;;2.10;0.55;;;;;;;20.19;72.94;101844.34;5026341;28;20044;-79
2022/08/26 11:06:45;;;;;;;2.28;0.75;;;;;;;20.20;73.34;101846.06;5030354;28;20036;-80
2022/08/26 11:09:31;;;;;;;2.75;1.00;;;;;;;20.21;73.35;101844.25;5000778;28;20033;-79
2022/08/26 11:11:57;;;;;;;2.72;0.70;;;;;;;20.22;72.72;101841.50;5034307;28;20029;-79
2022/08/26 11:14:22;;;;;;;5.38;0.88;;;;;;;20.22;72.40;101853.94;5016470;28;20052;-79
2022/08/26 11:16:50;;;;;;;2.67;0.75;;;;;;;20.21;72.31;101863.75;5014839;28;20143;-79
2022/08/26 11:19:40;;;;;;;1.75;0.60;;;;;;;20.22;72.46;101856.59;5033899;28;20092;-80
2022/08/26 11:22:22;;;;;;;3.95;0.93;;;;;;;20.23;72.26;101855.63;5019843;28;20075;-79
2022/08/26 11:24:54;;;;;;;5.35;0.73;;;;;;;20.22;72.73;101852.13;5030319;28;20045;-79
2022/08/26 11:27:23;;;;;;;2.63;0.82;;;;;;;20.24;72.23;101854.69;5016099;28;20099;-79
2022/08/26 11:30:09;;;;;;;1.05;0.82;;;;;;;20.25;71.88;101848.44;5014057;28;20025;-79
2022/08/26 11:32:40;;;;;;;1.95;0.65;;;;;;;20.24;72.03;101846.72;5032743;28;20068;-79
2022/08/26 11:35:18;;;;;;;1.58;0.60;;;;;;;20.25;72.29;101843.13;5014315;28;20033;-79
2022/08/26 11:37:48;;;;;;;3.43;1.07;;;;;;;20.24;72.30;101854.69;5010460;28;20032;-79
2022/08/26 11:40:19;;;;;;;2.58;0.90;;;;;;;20.24;71.78;101849.38;5009942;28;20268;-80